KNIP/NIP METAR and TAF weather

Enter ICAO airport designator
Station Type Date Time Source
KNIP METAR 2019/08/18 19:53 UTC NOAA

KNIP 181953Z 21008KT 10SM FEW040 SCT095 SCT120 BKN160 BKN250 29/21 A3007 RMK AO2 SLP179 T2 SET T02890206 $


Station Type Date Time Source
KNIP Decoded METAR 2019/08/18 19:53 UTC NOAA

Station name not available
Aug 18, 2019 - 03:53 PM EDT / 2019.08.18 1953 UTC
Wind: from the SSW (210 degrees) at 9 MPH (8 KT):0
Visibility: 10 mile(s):0
Sky conditions: mostly cloudy
Temperature: 84.0 F (28.9 C)
Dew Point: 69.1 F (20.6 C)
Relative Humidity: 60%
Pressure (altimeter): 30.07 in. Hg (1018 hPa)
ob: KNIP 181953Z 21008KT 10SM FEW040 SCT095 SCT120 BKN160 BKN250 29/21 A3007 RMK AO2 SLP179 T2 SET T02890206
cycle: 20

Station Type Date Time Source
KNIP TAF 2019/08/18 15:21 UTC NOAA

TAF KNIP 1815/1915 18008KT 9999 VCTS BKN020CB BKN100 OVC150 QNH2990INS
TEMPO 1822/1903 VRB20G30KT 4800 TSRA BKN008CB BKN150
FM190400 18010KT 9999 SCT020 BKN150 QNH2997INS T31/1822Z T23/1909Z FN00205

Example: see airport list